createdAt,value
2017-07-11T00:00:50.718Z,1002.2
2017-07-11T00:01:59.633Z,1002.16
2017-07-11T00:03:08.553Z,1002.12
2017-07-11T00:04:17.477Z,1002.14
2017-07-11T00:05:26.394Z,1002.14
2017-07-11T00:06:35.311Z,1002.14
2017-07-11T00:07:44.229Z,1002.15
2017-07-11T00:08:53.149Z,1002.18
2017-07-11T00:10:02.148Z,1002.16
2017-07-11T00:11:11.064Z,1002.2
2017-07-11T00:12:19.984Z,1002.21
2017-07-11T00:13:28.995Z,1002.25
2017-07-11T00:14:37.917Z,1002.28
2017-07-11T00:15:46.833Z,1002.27
2017-07-11T00:16:55.756Z,1002.26
2017-07-11T00:18:04.679Z,1002.26
2017-07-11T00:19:13.604Z,1002.22
2017-07-11T00:20:22.520Z,1002.26
2017-07-11T00:21:31.439Z,1002.32
2017-07-11T00:22:40.353Z,1002.33
2017-07-11T00:23:49.275Z,1002.37
2017-07-11T00:24:58.196Z,1002.36
2017-07-11T00:26:07.118Z,1002.41
2017-07-11T00:27:16.041Z,1002.39
2017-07-11T00:28:24.951Z,1002.43
2017-07-11T00:29:33.865Z,1002.44
2017-07-11T00:30:42.783Z,1002.5
2017-07-11T00:31:51.693Z,1002.52
2017-07-11T00:33:00.619Z,1002.58
2017-07-11T00:34:09.542Z,1002.58
2017-07-11T00:35:18.465Z,1002.61
2017-07-11T00:36:27.386Z,1002.66
2017-07-11T00:37:36.640Z,1002.67
2017-07-11T00:38:45.558Z,1002.76
2017-07-11T00:39:54.474Z,1002.85
2017-07-11T00:41:03.396Z,1002.9
2017-07-11T00:42:12.318Z,1002.93
2017-07-11T00:43:21.240Z,1002.96
2017-07-11T00:44:30.145Z,1002.99
2017-07-11T00:45:39.073Z,1002.97
2017-07-11T00:46:47.997Z,1002.96
2017-07-11T00:47:56.921Z,1002.97
2017-07-11T00:49:05.841Z,1002.96
2017-07-11T00:50:14.759Z,1002.96
2017-07-11T00:51:23.681Z,1002.94
2017-07-11T00:52:32.605Z,1002.9
2017-07-11T00:53:41.534Z,1002.91
2017-07-11T00:54:50.460Z,1002.92
2017-07-11T00:55:59.368Z,1002.96
2017-07-11T00:57:08.292Z,1002.97
2017-07-11T00:58:17.229Z,1003.05
2017-07-11T00:59:26.145Z,1002.98
2017-07-11T01:00:35.058Z,1003.06
2017-07-11T01:01:43.979Z,1002.99
2017-07-11T01:02:52.893Z,1002.99
2017-07-11T01:04:01.806Z,1003.05
2017-07-11T01:05:10.723Z,1002.98
2017-07-11T01:06:19.636Z,1003
2017-07-11T01:07:28.557Z,1002.98
2017-07-11T01:08:37.481Z,1002.98
2017-07-11T01:09:46.401Z,1003
2017-07-11T01:10:55.322Z,1002.99
2017-07-11T01:12:04.241Z,1003
2017-07-11T01:13:13.166Z,1002.98
2017-07-11T01:14:22.086Z,1003
2017-07-11T01:15:31.011Z,1002.98
2017-07-11T01:16:39.921Z,1003
2017-07-11T01:17:48.834Z,1003.06
2017-07-11T01:18:57.758Z,1003.1
2017-07-11T01:20:06.677Z,1003.18
2017-07-11T01:21:15.586Z,1003.16
2017-07-11T01:22:24.506Z,1003.21
2017-07-11T01:23:33.524Z,1003.15
2017-07-11T01:24:42.437Z,1003.18
2017-07-11T01:25:51.351Z,1003.17
2017-07-11T01:27:00.266Z,1003.21
2017-07-11T01:28:09.184Z,1003.23
2017-07-11T01:29:18.113Z,1003.19
2017-07-11T01:30:27.031Z,1003.16
2017-07-11T01:31:35.948Z,1003.19
2017-07-11T01:32:44.871Z,1003.23
2017-07-11T01:33:53.790Z,1003.2
2017-07-11T01:35:02.708Z,1003.18
2017-07-11T01:36:11.631Z,1003.18
2017-07-11T01:37:20.881Z,1003.19
2017-07-11T01:38:29.809Z,1003.13
2017-07-11T01:39:38.728Z,1003.13
2017-07-11T01:40:47.644Z,1003.15
2017-07-11T01:41:56.559Z,1003.11
2017-07-11T01:43:05.811Z,1003.11
2017-07-11T01:44:14.726Z,1003.03
2017-07-11T01:45:23.638Z,1003.03
2017-07-11T01:46:32.556Z,1002.98
2017-07-11T01:47:41.467Z,1003.04
2017-07-11T01:48:50.396Z,1003.05
2017-07-11T01:49:59.318Z,1003.11
2017-07-11T01:51:08.239Z,1003.13
2017-07-11T01:52:17.167Z,1003.14
2017-07-11T01:53:26.081Z,1003.19
2017-07-11T01:54:35.001Z,1003.19
2017-07-11T01:55:43.927Z,1003.25
2017-07-11T01:56:52.853Z,1003.19
2017-07-11T01:58:01.764Z,1003.2
2017-07-11T01:59:10.676Z,1003.15
2017-07-11T02:00:19.598Z,1003.17
2017-07-11T02:01:28.520Z,1003.15
2017-07-11T02:02:37.441Z,1003.17
2017-07-11T02:03:46.361Z,1003.17
2017-07-11T02:04:55.275Z,1003.2
2017-07-11T02:06:04.280Z,1003.2
2017-07-11T02:07:13.194Z,1003.22
2017-07-11T02:08:22.853Z,1003.26
2017-07-11T02:09:31.776Z,1003.29
2017-07-11T02:10:40.699Z,1003.34
2017-07-11T02:11:49.617Z,1003.38
2017-07-11T02:12:58.634Z,1003.36
2017-07-11T02:14:07.550Z,1003.37
2017-07-11T02:15:16.467Z,1003.39
2017-07-11T02:16:25.380Z,1003.4
2017-07-11T02:17:34.303Z,1003.44
2017-07-11T02:18:43.221Z,1003.43
2017-07-11T02:19:52.141Z,1003.41
2017-07-11T02:21:01.063Z,1003.44
2017-07-11T02:22:09.986Z,1003.36
2017-07-11T02:23:18.902Z,1003.31
2017-07-11T02:24:27.823Z,1003.33
2017-07-11T02:25:36.745Z,1003.3
2017-07-11T02:26:45.661Z,1003.33
2017-07-11T02:27:54.574Z,1003.35
2017-07-11T02:29:03.497Z,1003.3
2017-07-11T02:30:12.413Z,1003.33
2017-07-11T02:31:21.381Z,1003.29
2017-07-11T02:32:30.250Z,1003.3
2017-07-11T02:33:39.170Z,1003.33
2017-07-11T02:34:48.088Z,1003.3
2017-07-11T02:35:57.012Z,1003.36
2017-07-11T02:37:05.927Z,1003.36
2017-07-11T02:38:14.841Z,1003.42
2017-07-11T02:39:23.755Z,1003.41
2017-07-11T02:40:32.670Z,1003.4
2017-07-11T02:41:41.583Z,1003.47
2017-07-11T02:42:50.504Z,1003.52
2017-07-11T02:43:59.427Z,1003.52
2017-07-11T02:45:08.678Z,1003.54
2017-07-11T02:46:17.598Z,1003.54
2017-07-11T02:47:26.525Z,1003.62
2017-07-11T02:48:35.442Z,1003.62
2017-07-11T02:49:44.359Z,1003.63
2017-07-11T02:50:53.276Z,1003.62
2017-07-11T02:52:02.195Z,1003.63
2017-07-11T02:53:11.113Z,1003.64
2017-07-11T02:54:20.029Z,1003.6
2017-07-11T02:55:28.949Z,1003.6
2017-07-11T02:56:38.282Z,1003.6
2017-07-11T02:57:47.197Z,1003.63
2017-07-11T02:58:56.124Z,1003.6
2017-07-11T03:00:05.376Z,1003.63
2017-07-11T03:01:14.293Z,1003.65
2017-07-11T03:02:23.211Z,1003.64
2017-07-11T03:03:32.131Z,1003.66
2017-07-11T03:04:41.049Z,1003.67
2017-07-11T03:05:49.967Z,1003.71
2017-07-11T03:06:58.886Z,1003.71
2017-07-11T03:08:07.805Z,1003.71
2017-07-11T03:09:16.727Z,1003.73
2017-07-11T03:10:25.644Z,1003.67
2017-07-11T03:11:34.571Z,1003.69
2017-07-11T03:12:43.490Z,1003.68
2017-07-11T03:13:52.409Z,1003.68
2017-07-11T03:15:01.330Z,1003.63
2017-07-11T03:16:10.250Z,1003.68
2017-07-11T03:17:19.171Z,1003.66
2017-07-11T03:18:28.091Z,1003.7
2017-07-11T03:19:37.097Z,1003.75
2017-07-11T03:20:46.020Z,1003.75
2017-07-11T03:21:54.944Z,1003.73
2017-07-11T03:23:03.857Z,1003.76
2017-07-11T03:24:12.777Z,1003.72
2017-07-11T03:25:21.700Z,1003.71
2017-07-11T03:26:30.952Z,1003.73
2017-07-11T03:27:39.875Z,1003.76
2017-07-11T03:28:48.792Z,1003.78
2017-07-11T03:29:57.711Z,1003.8
2017-07-11T03:31:06.623Z,1003.84
2017-07-11T03:32:15.541Z,1003.84
2017-07-11T03:33:24.464Z,1003.87
2017-07-11T03:34:33.378Z,1003.85
2017-07-11T03:35:42.303Z,1003.85
2017-07-11T03:36:51.223Z,1003.89
2017-07-11T03:38:00.217Z,1003.95
2017-07-11T03:39:09.134Z,1003.99
2017-07-11T03:40:18.056Z,1003.94
2017-07-11T03:41:26.978Z,1003.96
2017-07-11T03:42:35.979Z,1003.98
2017-07-11T03:43:45.573Z,1004
2017-07-11T03:44:54.495Z,1004.01
2017-07-11T03:46:03.409Z,1004.05
2017-07-11T03:47:12.628Z,1004.03
2017-07-11T03:48:21.556Z,1004.04
2017-07-11T03:49:30.477Z,1004.08
2017-07-11T03:50:39.395Z,1004.08
2017-07-11T03:51:48.308Z,1004.09
2017-07-11T03:52:57.224Z,1004.11
2017-07-11T03:54:06.143Z,1004.08
2017-07-11T03:55:15.056Z,1004.16
2017-07-11T03:56:24.303Z,1004.14
2017-07-11T03:57:33.218Z,1004.22
2017-07-11T03:58:42.140Z,1004.21
2017-07-11T03:59:51.068Z,1004.23
2017-07-11T04:00:59.977Z,1004.26
2017-07-11T04:02:08.899Z,1004.33
2017-07-11T04:03:17.817Z,1004.33
2017-07-11T04:04:26.733Z,1004.3
2017-07-11T04:05:35.649Z,1004.33
2017-07-11T04:06:44.566Z,1004.34
2017-07-11T04:07:53.488Z,1004.28
2017-07-11T04:09:02.406Z,1004.29
2017-07-11T04:10:11.330Z,1004.32
2017-07-11T04:11:20.244Z,1004.3
2017-07-11T04:12:29.162Z,1004.3
2017-07-11T04:13:38.080Z,1004.32
2017-07-11T04:14:46.995Z,1004.33
2017-07-11T04:15:55.911Z,1004.37
2017-07-11T04:17:04.828Z,1004.39
2017-07-11T04:18:13.749Z,1004.38
2017-07-11T04:19:22.677Z,1004.4
2017-07-11T04:20:31.601Z,1004.42
2017-07-11T04:21:40.520Z,1004.4
2017-07-11T04:22:49.434Z,1004.41
2017-07-11T04:23:58.351Z,1004.45
2017-07-11T04:25:07.273Z,1004.46
2017-07-11T04:26:16.530Z,1004.47
2017-07-11T04:27:25.453Z,1004.49
2017-07-11T04:28:34.724Z,1004.46
2017-07-11T04:29:43.647Z,1004.44
2017-07-11T04:30:52.570Z,1004.42
2017-07-11T04:32:01.488Z,1004.45
2017-07-11T04:33:10.407Z,1004.46
2017-07-11T04:34:19.328Z,1004.45
2017-07-11T04:35:28.242Z,1004.43
2017-07-11T04:36:37.166Z,1004.43
2017-07-11T04:37:46.085Z,1004.48
2017-07-11T04:38:54.997Z,1004.52
2017-07-11T04:40:04.004Z,1004.52
2017-07-11T04:41:12.918Z,1004.54
2017-07-11T04:42:21.836Z,1004.5
2017-07-11T04:43:30.753Z,1004.53
2017-07-11T04:44:39.675Z,1004.52
2017-07-11T04:45:48.589Z,1004.51
2017-07-11T04:46:57.596Z,1004.51
2017-07-11T04:48:06.518Z,1004.55
2017-07-11T04:49:15.432Z,1004.54
2017-07-11T04:50:24.357Z,1004.56
2017-07-11T04:51:33.275Z,1004.59
2017-07-11T04:52:42.192Z,1004.59
2017-07-11T04:53:51.117Z,1004.57
2017-07-11T04:55:00.033Z,1004.59
2017-07-11T04:56:09.120Z,1004.62
2017-07-11T04:57:18.044Z,1004.62
2017-07-11T04:58:26.967Z,1004.66
2017-07-11T04:59:35.905Z,1004.64
2017-07-11T05:00:44.810Z,1004.65
2017-07-11T05:01:53.727Z,1004.65
2017-07-11T05:03:02.724Z,1004.7
2017-07-11T05:04:11.646Z,1004.73
2017-07-11T05:05:20.560Z,1004.71
2017-07-11T05:06:29.482Z,1004.71
2017-07-11T05:07:38.405Z,1004.73
2017-07-11T05:08:47.325Z,1004.75
2017-07-11T05:09:56.248Z,1004.76
2017-07-11T05:11:05.169Z,1004.71
2017-07-11T05:12:14.088Z,1004.75
2017-07-11T05:13:23.008Z,1004.73
2017-07-11T05:14:31.920Z,1004.71
2017-07-11T05:15:40.842Z,1004.71
2017-07-11T05:16:49.769Z,1004.78
2017-07-11T05:17:58.689Z,1004.8
2017-07-11T05:19:07.608Z,1004.79
2017-07-11T05:20:16.618Z,1004.82
2017-07-11T05:21:25.535Z,1004.81
2017-07-11T05:22:34.536Z,1004.88
2017-07-11T05:23:43.448Z,1004.88
2017-07-11T05:24:52.369Z,1004.85
2017-07-11T05:26:01.284Z,1004.88
2017-07-11T05:27:10.197Z,1004.88
2017-07-11T05:28:19.198Z,1004.89
2017-07-11T05:29:28.199Z,1004.92
2017-07-11T05:30:37.118Z,1004.93
2017-07-11T05:31:46.034Z,1004.96
2017-07-11T05:32:54.958Z,1004.96
2017-07-11T05:34:03.881Z,1004.91
2017-07-11T05:35:12.812Z,1004.92
2017-07-11T05:36:21.728Z,1004.93
2017-07-11T05:37:30.648Z,1004.9
2017-07-11T05:38:39.575Z,1004.92
2017-07-11T05:39:48.492Z,1004.89
2017-07-11T05:40:57.416Z,1004.91
2017-07-11T05:42:06.338Z,1004.9
2017-07-11T05:43:15.261Z,1004.92
2017-07-11T05:44:24.180Z,1004.88
2017-07-11T05:45:33.095Z,1004.86
2017-07-11T05:46:42.007Z,1004.86
2017-07-11T05:47:50.924Z,1004.84
2017-07-11T05:48:59.841Z,1004.86
2017-07-11T05:50:08.764Z,1004.82
2017-07-11T05:51:17.679Z,1004.84
2017-07-11T05:52:26.593Z,1004.84
2017-07-11T05:53:35.507Z,1004.85
2017-07-11T05:54:44.432Z,1004.86
2017-07-11T05:55:53.351Z,1004.85
2017-07-11T05:57:02.269Z,1004.87
2017-07-11T05:58:11.196Z,1004.9
2017-07-11T05:59:20.116Z,1004.95
2017-07-11T06:00:29.030Z,1004.96
2017-07-11T06:01:37.951Z,1004.95
2017-07-11T06:02:46.873Z,1004.99
2017-07-11T06:03:55.784Z,1004.98
2017-07-11T06:05:04.704Z,1004.98
2017-07-11T06:06:13.628Z,1004.95
2017-07-11T06:07:22.540Z,1004.94
2017-07-11T06:08:31.461Z,1004.96
2017-07-11T06:09:40.378Z,1004.95
2017-07-11T06:10:49.294Z,1004.9
2017-07-11T06:11:58.208Z,1004.95
2017-07-11T06:13:07.121Z,1004.98
2017-07-11T06:14:16.037Z,1004.95
2017-07-11T06:15:24.957Z,1004.95
2017-07-11T06:16:33.960Z,1004.91
2017-07-11T06:17:42.879Z,1004.91
2017-07-11T06:18:51.883Z,1004.96
2017-07-11T06:20:00.809Z,1004.94
2017-07-11T06:21:09.730Z,1004.91
2017-07-11T06:22:18.649Z,1004.92
2017-07-11T06:23:27.566Z,1004.92
2017-07-11T06:24:36.486Z,1004.92
2017-07-11T06:25:45.406Z,1004.95
2017-07-11T06:26:54.323Z,1004.94
2017-07-11T06:28:03.248Z,1004.98
2017-07-11T06:29:12.165Z,1005
2017-07-11T06:30:21.086Z,1005
2017-07-11T06:31:29.998Z,1005
2017-07-11T06:32:38.920Z,1005
2017-07-11T06:33:47.847Z,1004.99
2017-07-11T06:34:56.766Z,1004.96
2017-07-11T06:36:05.679Z,1004.95
2017-07-11T06:37:14.935Z,1004.98
2017-07-11T06:38:23.854Z,1005.01
2017-07-11T06:39:32.773Z,1004.99
2017-07-11T06:40:41.693Z,1005.03
2017-07-11T06:41:50.611Z,1005.08
2017-07-11T06:42:59.533Z,1005.07
2017-07-11T06:44:08.452Z,1005.05
2017-07-11T06:45:17.371Z,1005.08
2017-07-11T06:46:26.291Z,1005.09
2017-07-11T06:47:35.214Z,1005.13
2017-07-11T06:48:44.138Z,1005.09
2017-07-11T06:49:53.059Z,1005.09
2017-07-11T06:51:01.977Z,1005.09
2017-07-11T06:52:10.891Z,1005.14
2017-07-11T06:53:19.811Z,1005.13
2017-07-11T06:54:28.725Z,1005.12
2017-07-11T06:55:37.645Z,1005.13
2017-07-11T06:56:46.570Z,1005.1
2017-07-11T06:57:55.485Z,1005.1
2017-07-11T06:59:04.407Z,1005.14
2017-07-11T07:00:13.325Z,1005.12
2017-07-11T07:01:22.250Z,1005.14
2017-07-11T07:02:31.174Z,1005.17
2017-07-11T07:03:40.173Z,1005.15
2017-07-11T07:04:49.099Z,1005.14
2017-07-11T07:05:58.014Z,1005.13
2017-07-11T07:07:06.934Z,1005.07
2017-07-11T07:08:15.858Z,1005.13
2017-07-11T07:09:24.781Z,1005.1
2017-07-11T07:10:33.700Z,1005.13
2017-07-11T07:11:42.624Z,1005.14
2017-07-11T07:12:51.875Z,1005.1
2017-07-11T07:14:00.794Z,1005.1
2017-07-11T07:15:09.716Z,1005.08
2017-07-11T07:16:18.632Z,1005.06
2017-07-11T07:17:27.552Z,1005.1
2017-07-11T07:18:36.472Z,1005.12
2017-07-11T07:19:45.395Z,1005.09
2017-07-11T07:20:54.642Z,1005.13
2017-07-11T07:22:03.568Z,1005.1
2017-07-11T07:23:12.488Z,1005.16
2017-07-11T07:24:21.413Z,1005.17
2017-07-11T07:25:30.341Z,1005.14
2017-07-11T07:26:39.348Z,1005.2
2017-07-11T07:27:48.265Z,1005.21
2017-07-11T07:28:57.267Z,1005.25
2017-07-11T07:30:06.187Z,1005.2
2017-07-11T07:31:15.108Z,1005.26
2017-07-11T07:32:24.041Z,1005.24
2017-07-11T07:33:33.285Z,1005.19
2017-07-11T07:34:42.208Z,1005.22
2017-07-11T07:35:51.453Z,1005.19
2017-07-11T07:37:00.370Z,1005.21
2017-07-11T07:38:09.290Z,1005.24
2017-07-11T07:39:18.307Z,1005.25
2017-07-11T07:40:27.232Z,1005.3
2017-07-11T07:41:36.155Z,1005.33
2017-07-11T07:42:45.074Z,1005.35
2017-07-11T07:43:53.997Z,1005.37
2017-07-11T07:45:02.921Z,1005.31
2017-07-11T07:46:11.836Z,1005.31
2017-07-11T07:47:20.761Z,1005.33
2017-07-11T07:48:29.676Z,1005.32
2017-07-11T07:49:38.596Z,1005.3
2017-07-11T07:50:47.515Z,1005.35
2017-07-11T07:51:56.522Z,1005.33
2017-07-11T07:53:05.447Z,1005.33
2017-07-11T07:54:14.376Z,1005.33
2017-07-11T07:55:23.295Z,1005.29
2017-07-11T07:56:32.220Z,1005.32
2017-07-11T07:57:41.145Z,1005.36
2017-07-11T07:58:50.153Z,1005.38
2017-07-11T07:59:59.081Z,1005.36
2017-07-11T08:01:07.998Z,1005.32
2017-07-11T08:02:16.916Z,1005.3
2017-07-11T08:03:25.838Z,1005.32
2017-07-11T08:04:34.760Z,1005.34
2017-07-11T08:05:43.681Z,1005.35
2017-07-11T08:06:52.599Z,1005.36
2017-07-11T08:08:01.520Z,1005.36
2017-07-11T08:09:10.446Z,1005.39
2017-07-11T08:10:19.371Z,1005.46
2017-07-11T08:11:28.288Z,1005.42
2017-07-11T08:12:37.206Z,1005.43
2017-07-11T08:13:46.128Z,1005.43
2017-07-11T08:14:55.043Z,1005.4
2017-07-11T08:16:03.973Z,1005.41
2017-07-11T08:17:12.900Z,1005.4
2017-07-11T08:18:21.817Z,1005.39
2017-07-11T08:19:30.736Z,1005.37
2017-07-11T08:20:39.656Z,1005.38
2017-07-11T08:21:48.580Z,1005.36
2017-07-11T08:22:57.501Z,1005.38
2017-07-11T08:24:06.422Z,1005.39
2017-07-11T08:25:15.345Z,1005.38
2017-07-11T08:26:24.264Z,1005.44
2017-07-11T08:27:33.184Z,1005.43
2017-07-11T08:28:42.109Z,1005.45
2017-07-11T08:29:51.122Z,1005.47
2017-07-11T08:31:00.046Z,1005.46
2017-07-11T08:32:09.047Z,1005.5
2017-07-11T08:33:17.969Z,1005.52
2017-07-11T08:34:26.888Z,1005.54
2017-07-11T08:35:35.806Z,1005.53
2017-07-11T08:36:45.121Z,1005.5
2017-07-11T08:37:54.047Z,1005.49
2017-07-11T08:39:02.966Z,1005.51
2017-07-11T08:40:11.881Z,1005.49
2017-07-11T08:41:20.803Z,1005.51
2017-07-11T08:42:29.728Z,1005.54
2017-07-11T08:43:38.653Z,1005.53
2017-07-11T08:44:47.574Z,1005.55
2017-07-11T08:45:56.497Z,1005.56
2017-07-11T08:47:05.417Z,1005.54
2017-07-11T08:48:14.336Z,1005.58
2017-07-11T08:49:23.251Z,1005.57
2017-07-11T08:50:32.170Z,1005.62
2017-07-11T08:51:41.424Z,1005.6
2017-07-11T08:52:50.427Z,1005.61
2017-07-11T08:53:59.346Z,1005.57
2017-07-11T08:55:08.266Z,1005.57
2017-07-11T08:56:17.188Z,1005.56
2017-07-11T08:57:26.112Z,1005.6
2017-07-11T08:58:35.028Z,1005.59
2017-07-11T08:59:43.952Z,1005.58
2017-07-11T09:00:52.874Z,1005.57
2017-07-11T09:02:01.797Z,1005.61
2017-07-11T09:03:10.720Z,1005.56
2017-07-11T09:04:19.643Z,1005.64
2017-07-11T09:05:28.561Z,1005.64
2017-07-11T09:06:37.489Z,1005.59
2017-07-11T09:07:46.413Z,1005.64
2017-07-11T09:08:55.333Z,1005.62
2017-07-11T09:10:04.266Z,1005.61
2017-07-11T09:11:13.187Z,1005.65
2017-07-11T09:12:22.103Z,1005.66
2017-07-11T09:13:31.025Z,1005.67
2017-07-11T09:14:39.947Z,1005.67
2017-07-11T09:15:48.866Z,1005.66
2017-07-11T09:16:57.787Z,1005.67
2017-07-11T09:18:07.043Z,1005.69
2017-07-11T09:19:15.957Z,1005.6
2017-07-11T09:20:24.879Z,1005.62
2017-07-11T09:21:33.793Z,1005.62
2017-07-11T09:22:42.712Z,1005.58
2017-07-11T09:23:51.633Z,1005.58
2017-07-11T09:25:00.552Z,1005.61
2017-07-11T09:26:09.461Z,1005.6
2017-07-11T09:27:18.381Z,1005.6
2017-07-11T09:28:27.306Z,1005.59
2017-07-11T09:29:36.225Z,1005.58
2017-07-11T09:30:45.144Z,1005.56
2017-07-11T09:31:54.066Z,1005.64
2017-07-11T09:33:02.986Z,1005.62
2017-07-11T09:34:11.912Z,1005.63
2017-07-11T09:35:20.828Z,1005.6
2017-07-11T09:36:29.748Z,1005.57
2017-07-11T09:37:38.680Z,1005.6
2017-07-11T09:38:47.600Z,1005.55
2017-07-11T09:39:56.529Z,1005.54
2017-07-11T09:41:05.454Z,1005.56
2017-07-11T09:42:14.375Z,1005.57
2017-07-11T09:43:23.293Z,1005.6
2017-07-11T09:44:32.212Z,1005.61
2017-07-11T09:45:41.131Z,1005.57
2017-07-11T09:46:50.059Z,1005.58
2017-07-11T09:47:58.988Z,1005.57
2017-07-11T09:49:07.906Z,1005.54
2017-07-11T09:50:16.838Z,1005.59
2017-07-11T09:51:25.764Z,1005.67
2017-07-11T09:52:35.082Z,1005.67
2017-07-11T09:53:43.939Z,1005.65
2017-07-11T09:54:52.862Z,1005.67
2017-07-11T09:56:01.785Z,1005.56
2017-07-11T09:57:10.704Z,1005.62
2017-07-11T09:58:19.623Z,1005.64
2017-07-11T09:59:28.540Z,1005.65
2017-07-11T10:00:37.469Z,1005.66
2017-07-11T10:01:46.399Z,1005.7
2017-07-11T10:02:55.318Z,1005.71
2017-07-11T10:04:04.241Z,1005.7
2017-07-11T10:05:13.249Z,1005.7
2017-07-11T10:06:22.181Z,1005.64
2017-07-11T10:07:31.102Z,1005.69
2017-07-11T10:08:40.023Z,1005.68
2017-07-11T10:09:48.948Z,1005.66
2017-07-11T10:10:57.873Z,1005.68
2017-07-11T10:12:06.798Z,1005.64
2017-07-11T10:13:15.716Z,1005.65
2017-07-11T10:14:24.630Z,1005.62
2017-07-11T10:15:33.547Z,1005.63
2017-07-11T10:16:42.476Z,1005.63
2017-07-11T10:17:51.395Z,1005.68
2017-07-11T10:19:00.325Z,1005.69
2017-07-11T10:20:09.259Z,1005.69
2017-07-11T10:21:18.182Z,1005.69
2017-07-11T10:22:27.111Z,1005.72
2017-07-11T10:23:36.032Z,1005.65
2017-07-11T10:24:44.958Z,1005.71
2017-07-11T10:25:53.884Z,1005.69
2017-07-11T10:27:02.815Z,1005.67
2017-07-11T10:28:11.739Z,1005.7
2017-07-11T10:29:21.410Z,1005.65
2017-07-11T10:30:30.339Z,1005.66
2017-07-11T10:31:39.345Z,1005.6
2017-07-11T10:32:48.274Z,1005.61
2017-07-11T10:33:57.191Z,1005.58
2017-07-11T10:35:06.114Z,1005.61
2017-07-11T10:36:15.038Z,1005.6
2017-07-11T10:37:23.963Z,1005.64
2017-07-11T10:38:32.887Z,1005.62
2017-07-11T10:39:41.806Z,1005.7
2017-07-11T10:40:50.732Z,1005.69
2017-07-11T10:41:59.665Z,1005.67
2017-07-11T10:43:08.597Z,1005.66
2017-07-11T10:44:17.517Z,1005.65
2017-07-11T10:45:26.442Z,1005.63
2017-07-11T10:46:35.372Z,1005.62
2017-07-11T10:47:44.297Z,1005.6
2017-07-11T10:48:53.306Z,1005.65
2017-07-11T10:50:02.226Z,1005.67
2017-07-11T10:51:11.147Z,1005.67
2017-07-11T10:52:20.079Z,1005.68
2017-07-11T10:53:29.005Z,1005.7
2017-07-11T10:54:38.013Z,1005.69
2017-07-11T10:55:46.940Z,1005.66
2017-07-11T10:56:55.864Z,1005.66
2017-07-11T10:58:04.790Z,1005.67
2017-07-11T10:59:13.719Z,1005.69
2017-07-11T11:00:22.640Z,1005.66
2017-07-11T11:01:31.561Z,1005.69
2017-07-11T11:02:40.489Z,1005.66
2017-07-11T11:03:49.416Z,1005.66
2017-07-11T11:04:58.336Z,1005.64
2017-07-11T11:06:07.256Z,1005.64
2017-07-11T11:07:16.183Z,1005.61
2017-07-11T11:08:25.103Z,1005.59
2017-07-11T11:09:34.030Z,1005.57
2017-07-11T11:10:42.959Z,1005.58
2017-07-11T11:11:51.891Z,1005.55
2017-07-11T11:13:00.813Z,1005.56
2017-07-11T11:14:09.734Z,1005.61
2017-07-11T11:15:18.663Z,1005.58
2017-07-11T11:16:27.583Z,1005.54
2017-07-11T11:17:36.509Z,1005.56
2017-07-11T11:18:45.432Z,1005.6
2017-07-11T11:19:54.365Z,1005.59
2017-07-11T11:21:03.294Z,1005.54
2017-07-11T11:22:12.219Z,1005.62
2017-07-11T11:23:21.145Z,1005.6
2017-07-11T11:24:30.073Z,1005.62
2017-07-11T11:25:38.997Z,1005.66
2017-07-11T11:26:47.932Z,1005.66
2017-07-11T11:27:56.848Z,1005.68
2017-07-11T11:29:05.770Z,1005.63
2017-07-11T11:30:14.689Z,1005.67
2017-07-11T11:31:23.703Z,1005.66
2017-07-11T11:32:32.624Z,1005.61
2017-07-11T11:33:41.880Z,1005.63
2017-07-11T11:34:50.801Z,1005.66
2017-07-11T11:35:59.727Z,1005.62
2017-07-11T11:37:08.650Z,1005.62
2017-07-11T11:38:17.577Z,1005.62
2017-07-11T11:39:26.500Z,1005.63
2017-07-11T11:40:35.426Z,1005.56
2017-07-11T11:41:44.343Z,1005.6
2017-07-11T11:42:53.274Z,1005.61
2017-07-11T11:44:02.204Z,1005.57
2017-07-11T11:45:11.126Z,1005.58
2017-07-11T11:46:20.136Z,1005.55
2017-07-11T11:47:29.064Z,1005.6
2017-07-11T11:48:37.996Z,1005.57
2017-07-11T11:49:46.910Z,1005.53
2017-07-11T11:50:55.833Z,1005.51
2017-07-11T11:52:04.759Z,1005.46
2017-07-11T11:53:13.681Z,1005.5
2017-07-11T11:54:22.607Z,1005.56
2017-07-11T11:55:31.538Z,1005.52
2017-07-11T11:56:40.462Z,1005.44
2017-07-11T11:57:49.383Z,1005.46
2017-07-11T11:58:58.316Z,1005.5
2017-07-11T12:00:07.244Z,1005.44
2017-07-11T12:01:16.173Z,1005.48
2017-07-11T12:02:25.093Z,1005.48
2017-07-11T12:03:34.015Z,1005.48
2017-07-11T12:04:42.937Z,1005.51
2017-07-11T12:05:51.861Z,1005.48
2017-07-11T12:07:00.868Z,1005.45
2017-07-11T12:08:09.796Z,1005.43
2017-07-11T12:09:18.715Z,1005.48
2017-07-11T12:10:27.639Z,1005.49
2017-07-11T12:11:36.558Z,1005.51
2017-07-11T12:12:45.485Z,1005.43
2017-07-11T12:13:54.407Z,1005.43
2017-07-11T12:15:03.336Z,1005.44
2017-07-11T12:16:12.264Z,1005.48
2017-07-11T12:17:21.186Z,1005.48
2017-07-11T12:18:30.114Z,1005.47
2017-07-11T12:19:39.037Z,1005.37
2017-07-11T12:20:47.964Z,1005.41
2017-07-11T12:21:56.890Z,1005.46
2017-07-11T12:23:05.808Z,1005.43
2017-07-11T12:24:14.727Z,1005.38
2017-07-11T12:25:23.647Z,1005.41
2017-07-11T12:26:32.571Z,1005.41
2017-07-11T12:27:41.495Z,1005.37
2017-07-11T12:28:50.426Z,1005.41
2017-07-11T12:29:59.349Z,1005.41
2017-07-11T12:31:08.280Z,1005.36
2017-07-11T12:32:17.206Z,1005.39
2017-07-11T12:33:26.136Z,1005.41
2017-07-11T12:34:35.058Z,1005.43
2017-07-11T12:35:43.979Z,1005.41
2017-07-11T12:36:52.902Z,1005.39
2017-07-11T12:38:01.829Z,1005.36
2017-07-11T12:39:10.757Z,1005.38
2017-07-11T12:40:19.686Z,1005.35
2017-07-11T12:41:28.613Z,1005.37
2017-07-11T12:42:37.540Z,1005.41
2017-07-11T12:43:46.470Z,1005.33
2017-07-11T12:44:55.476Z,1005.36
2017-07-11T12:46:04.403Z,1005.36
2017-07-11T12:47:13.333Z,1005.33
2017-07-11T12:48:22.253Z,1005.37
2017-07-11T12:49:31.185Z,1005.39
2017-07-11T12:50:40.104Z,1005.32
2017-07-11T12:51:49.025Z,1005.31
2017-07-11T12:52:57.953Z,1005.33
2017-07-11T12:54:06.875Z,1005.39
2017-07-11T12:55:15.800Z,1005.35
2017-07-11T12:56:24.724Z,1005.34
2017-07-11T12:57:33.985Z,1005.3
2017-07-11T12:58:42.910Z,1005.34
2017-07-11T12:59:51.832Z,1005.42
2017-07-11T13:01:00.762Z,1005.34
2017-07-11T13:02:09.770Z,1005.37
2017-07-11T13:03:18.692Z,1005.39
2017-07-11T13:04:27.613Z,1005.36
2017-07-11T13:05:36.538Z,1005.4
2017-07-11T13:06:45.461Z,1005.38
2017-07-11T13:07:54.389Z,1005.36
2017-07-11T13:09:03.319Z,1005.38
2017-07-11T13:10:12.244Z,1005.36
2017-07-11T13:11:21.246Z,1005.36
2017-07-11T13:12:30.171Z,1005.28
2017-07-11T13:13:39.099Z,1005.34
2017-07-11T13:14:48.027Z,1005.3
2017-07-11T13:15:56.953Z,1005.27
2017-07-11T13:17:05.881Z,1005.28
2017-07-11T13:18:14.802Z,1005.25
2017-07-11T13:19:23.731Z,1005.3
2017-07-11T13:20:32.657Z,1005.22
2017-07-11T13:21:41.586Z,1005.24
2017-07-11T13:22:50.509Z,1005.25
2017-07-11T13:23:59.431Z,1005.24
2017-07-11T13:25:08.355Z,1005.25
2017-07-11T13:26:17.277Z,1005.23
2017-07-11T13:27:26.202Z,1005.26
2017-07-11T13:28:35.120Z,1005.22
2017-07-11T13:29:44.040Z,1005.27
2017-07-11T13:30:52.962Z,1005.26
2017-07-11T13:32:01.893Z,1005.29
2017-07-11T13:33:10.819Z,1005.28
2017-07-11T13:34:19.742Z,1005.3
2017-07-11T13:35:28.664Z,1005.27
2017-07-11T13:36:37.592Z,1005.27
2017-07-11T13:37:46.520Z,1005.3
2017-07-11T13:38:55.445Z,1005.3
2017-07-11T13:40:04.374Z,1005.3
2017-07-11T13:41:13.301Z,1005.28
2017-07-11T13:42:22.224Z,1005.27
2017-07-11T13:43:31.151Z,1005.29
2017-07-11T13:44:40.082Z,1005.31
2017-07-11T13:45:49.002Z,1005.31
2017-07-11T13:46:57.929Z,1005.27
2017-07-11T13:48:06.854Z,1005.3
2017-07-11T13:49:15.775Z,1005.32
2017-07-11T13:50:24.789Z,1005.3
2017-07-11T13:51:33.703Z,1005.3
2017-07-11T13:52:42.626Z,1005.32
2017-07-11T13:53:51.549Z,1005.28
2017-07-11T13:55:00.471Z,1005.28
2017-07-11T13:56:09.396Z,1005.27
2017-07-11T13:57:18.322Z,1005.26
2017-07-11T13:58:27.254Z,1005.24